Saint Columbans, Nebraska
Current Conditions -  °F | °C
As of 10:26 PM on Monday 22 Dec 2014 (Local Time) from KOFF Reporting Station
Overcast Overcast  
Wind Chill:   Ceiling: 900
Heat Index:   Visibility: 10mi
Dew Point:   Wind: 6mph
Humidity: 93%   Direction: 270°W
Pressure: 29.46"   Gusts: NA
Location:  41.1°N, 95.87°W
Report Text: KOFF 230426Z AUTO 27005KT 10SM BKN009 OVC014 04/03 A2946 RMK AO2 CIG 009V013
Loading
Personal Weather Stations






























Interactive Weather Map New forecast layout! Learn more

10-Day Weather Forecast

Advertisements
Track Severe Weather on mobile